Latest Coastal Weather Observations for Hobart Airport

IDT60701

Issued at 12:02 am EDT Wednesday 29 January 2020 (issued every 10 minutes, with the page automatically refreshed every 10 minutes)

About coastal observations | Map of coastal stations | Coastal observations for TAS | Marine services | Other Formats
Station Details ID: 094008 Name: HOBART AIRPORT Lat: -42.83 Lon: 147.50 Height: 4.0 m
Data from the previous 72 hours. | See also: Recent months at Hobart Airport
Date/Time
EDT
Wind Sea
Height
m
Swell Vis
km
Cloud Weather Temp
°C
Press
hPa
Rain since
9am
mm
Dir  Spd
kts
Gust
kts
Height
m
Period
s
Dir
29/12:00am NW 10 13 - - - - 10 Mostly clear - 18.4 1011.2 0.0
 
Date/Time
EDT
Wind Sea
Height
m
Swell Vis
km
Cloud Weather Temp
°C
Press
hPa
Rain since
9am
mm
Dir  Spd
kts
Gust
kts
Height
m
Period
s
Dir
28/11:30pm NW 9 14 - - - - 10 Mostly clear - 18.4 1011.2 0.0
28/11:00pm WNW 9 11 - - - - 10 Mostly clear - 18.7 1011.3 0.0
28/10:30pm WNW 12 17 - - - - 10 Mostly clear - 18.9 1011.1 0.0
28/10:00pm WNW 9 13 - - - - 10 Mostly clear - 19.1 1010.8 0.0
28/09:30pm NW 10 14 - - - - 10 Mostly clear - 19.5 1010.6 0.0
28/09:00pm WNW 14 17 - - - - 40 Mostly cloudy Fine 20.0 1010.0 0.0
28/08:30pm WNW 15 19 - - - - 10 Mostly clear - 20.7 1010.0 0.0
28/08:00pm W 11 17 - - - - 10 Mostly clear - 21.3 1009.8 0.0
28/07:30pm WNW 13 17 - - - - 10 Mostly clear - 21.9 1009.1 0.0
28/07:00pm W 14 18 - - - - 10 Mostly clear - 23.0 1008.6 0.0
28/06:30pm WNW 16 20 - - - - 10 Mostly clear - 23.5 1008.4 0.0
28/06:11pm WNW 15 27 - - - - 10 Mostly clear - 22.9 1008.2 0.0
28/06:00pm WNW 17 21 - - - - 40 Mostly cloudy Distant precip. 23.0 1008.1 0.0
28/05:30pm NW 16 23 - - - - 10 Partly cloudy - 24.4 1007.8 0.0
28/05:00pm W 16 26 - - - - 10 Partly cloudy - 24.6 1007.8 0.0
28/04:52pm WNW 15 26 - - - - 10 Partly cloudy - 23.2 1007.7 0.0
28/04:30pm WNW 16 23 - - - - 10 Partly cloudy - 24.2 1007.9 0.0
28/04:00pm W 14 21 - - - - 10 Partly cloudy - 24.2 1007.9 0.0
28/03:30pm WNW 15 20 - - - - 10 Partly cloudy - 24.8 1007.9 0.0
28/03:00pm NW 16 21 - - - - 40 Mostly cloudy Distant precip. 24.0 1007.9 0.0
28/02:30pm WNW 17 21 - - - - 10 Partly cloudy - 23.9 1007.7 0.0
28/02:15pm WNW 16 26 - - - - 10 - - 25.0 1007.5 0.0
28/02:00pm WNW 16 24 - - - - 10 - - 25.7 1007.8 0.0
28/01:30pm W 19 32 - - - - 10 - - 25.2 1007.8 0.0
28/01:22pm WNW 19 32 - - - - 10 - - 24.7 1007.8 0.0
28/01:03pm WNW 17 27 - - - - 10 Partly cloudy - 24.8 1007.7 0.0
28/01:00pm WNW 18 27 - - - - 10 Partly cloudy - 25.1 1007.8 0.0
28/12:33pm WNW 15 25 - - - - 10 Partly cloudy - 23.9 1008.0 0.0
28/12:30pm WNW 17 25 - - - - 10 Partly cloudy - 23.7 1008.1 0.0
28/12:00pm WNW 15 21 - - - - 40 Partly cloudy Fine 23.8 1008.2 0.0
28/11:30am NW 16 20 - - - - 10 Mostly clear - 22.3 1008.7 0.0
28/11:00am NW 15 20 - - - - 10 Mostly clear - 20.7 1009.1 0.0
28/10:30am NW 17 23 - - - - 10 Mostly clear - 19.7 1009.4 0.0
28/10:00am NW 17 22 - - - - 10 Mostly clear - 19.5 1009.5 0.0
28/09:30am NW 14 19 - - - - 10 Mostly clear - 17.2 1009.7 0.0
28/09:00am WNW 13 17 - - - - 35 Mostly cloudy Fine 17.1 1009.8 0.0
28/08:30am NW 14 18 - - - - 10 Mostly clear - 16.8 1009.4 0.0
28/08:00am WNW 14 18 - - - - 10 Partly cloudy - 16.7 1009.6 0.0
28/07:30am NW 16 21 - - - - 10 Mostly clear - 16.5 1009.6 0.0
28/07:00am NW 10 14 - - - - 10 Mostly clear - 16.2 1009.3 0.0
28/06:30am NW 13 18 - - - - 10 Mostly clear - 16.1 1009.3 0.0
28/06:00am NW 15 19 - - - - 35 Mostly cloudy Fine 15.9 1009.1 0.0
28/05:30am NW 13 17 - - - - 10 - - 16.1 1008.9 0.0
28/05:00am NNW 11 16 - - - - 10 - - 16.1 1009.4 0.0
28/04:30am NNW 11 17 - - - - 10 Partly cloudy - 16.0 1009.1 0.0
28/04:00am NNW 11 16 - - - - 10 - - 16.2 1009.9 0.0
28/03:30am NNW 13 18 - - - - 10 - - 16.4 1009.7 0.0
28/03:00am NW 17 22 - - - - 10 Cloudy - 16.7 1010.3 0.0
28/02:45am NW 16 26 - - - - 10 - - 16.9 1010.3 0.0
28/02:30am NW 12 19 - - - - 10 - - 17.0 1010.3 0.0
28/02:00am NNW 10 16 - - - - 10 - - 16.6 1010.4 0.0
28/01:30am NNW 9 14 - - - - 10 - - 16.7 1010.6 0.0
28/01:00am NNW 7 8 - - - - 10 - - 16.3 1011.5 0.0
28/12:30am N 5 6 - - - - 10 - - 16.2 1011.7 0.0
28/12:00am N 7 9 - - - - 10 Mostly cloudy - 16.5 1011.8 0.0
 
Date/Time
EDT
Wind Sea
Height
m
Swell Vis
km
Cloud Weather Temp
°C
Press
hPa
Rain since
9am
mm
Dir  Spd
kts
Gust
kts
Height
m
Period
s
Dir
27/11:30pm NNE 6 8 - - - - 10 - - 16.6 1012.1 0.0
27/11:00pm NW 8 10 - - - - 10 Partly cloudy - 17.1 1012.0 0.0
27/10:30pm NW 7 12 - - - - 10 Partly cloudy - 17.3 1012.3 0.0
27/10:00pm W 7 10 - - - - 10 - - 17.8 1012.2 0.0
27/09:30pm SW 2 5 - - - - 10 - - 16.7 1012.1 0.0
27/09:00pm NNE 3 5 - - - - 35 Partly cloudy Fine 16.6 1011.9 0.0
27/08:30pm ESE 4 5 - - - - 10 Cloudy - 17.9 1011.6 0.0
27/08:00pm SSE 8 10 - - - - 10 Partly cloudy - 18.4 1011.2 0.0
27/07:30pm SSW 10 14 - - - - 10 Mostly clear - 19.8 1010.8 0.0
27/07:00pm WSW 10 15 - - - - 10 Mostly clear - 21.3 1010.6 0.0
27/06:30pm WSW 13 20 - - - - 10 Mostly clear - 21.5 1010.3 0.0
27/06:00pm W 13 18 - - - - 40 Partly cloudy Fine 21.7 1010.4 0.0
27/05:30pm WNW 12 17 - - - - 10 Partly cloudy - 22.1 1010.3 0.0
27/05:00pm WNW 13 22 - - - - 10 Partly cloudy - 22.4 1010.1 0.0
27/04:30pm WNW 15 21 - - - - 10 Partly cloudy - 22.0 1010.3 0.0
27/04:19pm W 15 25 - - - - 10 Partly cloudy - 21.5 1010.4 0.0
27/04:00pm NW 12 21 - - - - 10 Cloudy - 22.4 1010.2 0.0
27/03:30pm W 15 21 - - - - 10 Partly cloudy - 21.4 1010.2 0.0
27/03:06pm WNW 18 28 - - - - 10 Partly cloudy - 22.0 1010.3 0.0
27/03:00pm WNW 18 27 - - - - 40 Partly cloudy Fine 22.1 1010.5 0.0
27/02:55pm NW 16 27 - - - - 10 Partly cloudy - 22.6 1010.4 0.0
27/02:30pm NW 14 20 - - - - 10 Partly cloudy - 19.7 1011.0 0.0
27/02:00pm NNW 11 16 - - - - 10 Mostly clear - 21.6 1011.1 0.0
27/01:30pm NW 14 18 - - - - 10 Mostly clear - 19.5 1011.3 0.0
27/01:00pm NNW 11 16 - - - - 10 Mostly clear - 18.3 1011.5 0.0
27/12:30pm NW 11 16 - - - - 10 Mostly clear - 17.6 1011.6 0.0
27/12:00pm NW 11 14 - - - - 40 Mostly cloudy Fine 17.2 1011.9 0.0
27/11:30am NW 8 10 - - - - 10 Mostly clear - 16.7 1012.1 0.0
27/11:00am NW 9 12 - - - - 10 Mostly clear - 16.7 1012.1 0.0
27/10:30am NW 11 14 - - - - 10 Mostly clear - 16.1 1012.0 0.0
27/10:00am NW 10 15 - - - - 10 Mostly clear - 16.1 1012.1 0.0
27/09:30am NW 11 17 - - - - 10 Partly cloudy - 16.0 1012.5 0.0
27/09:00am NW 11 17 - - - - 40 Cloudy Fine 16.0 1012.3 0.0
27/08:30am NNW 7 12 - - - - 10 Mostly clear - 15.9 1012.1 0.0
27/08:00am NW 10 13 - - - - 10 Mostly clear - 15.6 1012.3 0.0
27/07:30am NNW 7 9 - - - - 10 Mostly clear - 15.4 1012.1 0.0
27/07:00am NNW 7 10 - - - - 10 Mostly clear - 15.3 1011.8 0.0
27/06:30am NNW 6 9 - - - - 10 Mostly clear - 15.1 1011.9 0.0
27/06:00am WNW 10 14 - - - - 40 Cloudy Fine 15.4 1012.1 0.0
27/05:30am NW 9 13 - - - - 10 - - 15.1 1011.6 0.0
27/05:00am NNW 6 9 - - - - 10 Cloudy - 15.5 1011.3 0.0
27/04:30am NNW 7 12 - - - - 10 Cloudy - 15.6 1011.5 0.0
27/04:00am NW 11 15 - - - - 10 Cloudy - 15.5 1012.2 0.0
27/03:30am NNW 9 14 - - - - 10 - - 15.6 1012.0 0.0
27/03:00am NNW 7 11 - - - - 10 Cloudy - 15.6 1011.9 0.0
27/02:30am NNW 10 17 - - - - 10 - - 15.7 1011.6 0.0
27/02:00am NW 13 18 - - - - 10 - - 15.8 1011.6 0.0
27/01:30am NW 17 22 - - - - 10 - - 15.9 1011.4 0.0
27/01:00am NNW 9 15 - - - - 10 - - 16.0 1012.0 0.0
27/12:30am NW 10 16 - - - - 10 - - 16.1 1011.9 0.0
27/12:00am NNW 8 14 - - - - 10 Cloudy - 16.0 1011.9 0.0
 
Date/Time
EDT
Wind Sea
Height
m
Swell Vis
km
Cloud Weather Temp
°C
Press
hPa
Rain since
9am
mm
Dir  Spd
kts
Gust
kts
Height
m
Period
s
Dir
26/11:30pm NNW 11 15 - - - - 10 Partly cloudy - 16.2 1012.3 0.0
26/11:00pm NNW 9 14 - - - - 10 Cloudy - 16.2 1012.9 0.0
26/10:30pm NW 7 8 - - - - 10 Partly cloudy - 15.6 1013.0 0.0
26/10:00pm WNW 7 10 - - - - 10 - - 16.4 1012.4 0.0
26/09:30pm WNW 11 17 - - - - 10 - - 16.7 1012.1 0.0
26/09:00pm W 10 14 - - - - 40 Mostly cloudy Fine 16.8 1011.3 0.0
26/08:30pm W 15 19 - - - - 10 - - 17.3 1010.9 0.0
26/08:00pm W 17 22 - - - - 10 - - 18.2 1010.0 0.0
26/07:30pm NW 14 19 - - - - 10 Partly cloudy - 18.7 1009.8 0.0
26/07:00pm WNW 14 18 - - - - 10 - - 19.6 1009.6 0.0
26/06:30pm NW 15 23 - - - - 10 Partly cloudy - 20.1 1008.7 0.0
26/06:03pm WNW 18 28 - - - - 10 Partly cloudy - 20.7 1008.6 0.0
26/06:00pm WNW 16 25 - - - - 40 Partly cloudy Fine 21.0 1008.6 0.0
26/05:30pm WNW 17 28 - - - - 10 Partly cloudy - 19.9 1008.4 0.0
26/05:27pm WNW 17 28 - - - - 10 Partly cloudy - 20.4 1008.3 0.0
26/05:00pm W 17 22 - - - - 10 Partly cloudy - 20.7 1008.2 0.0
26/04:30pm W 17 22 - - - - 10 Partly cloudy - 20.0 1007.7 0.0
26/04:00pm WNW 15 25 - - - - 10 Partly cloudy - 21.2 1007.8 0.0
26/03:40pm WNW 19 29 - - - - 10 Partly cloudy - 20.7 1007.8 0.0
26/03:30pm WNW 18 24 - - - - 10 Partly cloudy - 22.1 1007.4 0.0
26/03:05pm WNW 19 29 - - - - 10 Partly cloudy - 20.4 1007.6 0.0
26/03:00pm WNW 20 29 - - - - 40 Partly cloudy Fine 20.7 1007.5 0.0
26/02:30pm WNW 18 28 - - - - 10 Partly cloudy - 21.6 1007.4 0.0
26/02:12pm WNW 17 27 - - - - 10 Partly cloudy - 21.6 1007.2 0.0
26/02:00pm WNW 18 26 - - - - 10 Partly cloudy - 22.9 1006.9 0.0
26/01:43pm WNW 16 26 - - - - 10 Mostly clear - 22.4 1006.9 0.0
26/01:30pm WNW 15 21 - - - - 10 Mostly clear - 21.6 1006.9 0.0
26/01:00pm W 13 20 - - - - 10 Mostly clear - 21.7 1006.7 0.0
26/12:30pm SSE 9 15 - - - - 10 Mostly clear - 22.0 1006.4 0.0
26/12:00pm SE 10 14 - - - - 40 Mostly cloudy Fine 20.2 1006.4 0.0
26/11:30am SE 11 15 - - - - 10 Mostly cloudy - 20.0 1005.9 0.0
26/11:00am SSE 7 11 - - - - 10 Partly cloudy - 20.6 1006.4 0.0
26/10:30am SE 7 9 - - - - 10 Mostly clear - 19.0 1006.7 0.0
26/10:00am SSE 8 10 - - - - 10 Partly cloudy - 18.4 1006.8 0.0
26/09:30am SE 10 12 - - - - 10 Mostly clear - 18.6 1006.9 0.0
26/09:00am SSE 8 9 - - - - 40 Mostly cloudy Fine 17.8 1006.8 0.0
26/08:30am SSE 8 10 - - - - 10 Mostly clear - 17.7 1006.9 0.0
26/08:00am SW 6 9 - - - - 10 Mostly clear - 18.5 1006.6 0.0
26/07:30am NNW 5 8 - - - - 10 Mostly clear - 18.5 1006.4 0.0
26/07:00am NNW 7 10 - - - - 10 Mostly clear - 18.2 1006.5 0.0
26/06:30am NNW 5 8 - - - - 10 Mostly clear - 17.6 1006.4 0.0
26/06:00am N 6 8 - - - - 40 Mostly cloudy Fine 18.0 1006.1 0.0
26/05:30am N 7 8 - - - - 10 - - 17.9 1005.8 0.0
26/05:00am NNW 6 8 - - - - 10 Partly cloudy - 17.9 1005.7 0.0
26/04:30am N 6 10 - - - - 10 Partly cloudy - 17.7 1005.8 0.0
26/04:00am NNW 8 12 - - - - 10 Partly cloudy - 17.6 1005.8 0.0
26/03:30am NNW 8 11 - - - - 10 - - 17.4 1005.9 0.0
26/03:00am NNW 8 10 - - - - 10 - - 17.5 1006.1 0.0
26/02:30am N 8 13 - - - - 10 - - 17.7 1006.5 0.0
26/02:00am N 7 11 - - - - 10 - - 17.5 1006.8 0.0
26/01:30am N 8 13 - - - - 10 - - 17.9 1007.0 0.0
26/01:00am N 7 10 - - - - 10 Partly cloudy - 18.2 1007.3 0.0
26/12:30am N 7 9 - - - - 10 Cloudy - 18.5 1007.6 0.0

Other formats

Comma delimited format used in spreadsheet applications
http://www.bom.gov.au/fwo/IDT60701/IDT60701.94975.axf

JavaScript Object Notation format (JSON) in row-major order
http://www.bom.gov.au/fwo/IDT60701/IDT60701.94975.json

Data quality

Most of these data are generated automatically and are frequently updated. Quality checks on data are not normally performed. It is possible for incorrect values to appear. Refer to information at About Latest Weather Observations and please check the disclaimer before using these data.